Time;durP1;ratioP1;P1;durP2;ratioP2;P2;SDS_P1;SDS_P2;PMS_P1;PMS_P2;Temp;Humidity;BMP_temperature;BMP_pressure;BME280_temperature;BME280_humidity;BME280_pressure;Samples;Min_cycle;Max_cycle;Signal;HPM_P1;HPM_P2
2022/12/14 00:00:48;;;;;;;;;;;;;;;11.02;68.35;100265.16;1267690;23;629;-71
2022/12/14 00:01:39;;;;;;;;;;;;;;;11.05;67.99;100259.59;1265427;23;632;-71
2022/12/14 00:02:29;;;;;;;;;;;;;;;11.02;68.28;100253.63;1259505;23;645;-71
2022/12/14 00:03:20;;;;;;;;;;;;;;;11.02;68.13;100256.28;1260561;23;630;-71
2022/12/14 00:04:10;;;;;;;;;;;;;;;11.02;68.78;100253.63;1267399;23;617;-71
2022/12/14 00:05:00;;;;;;;;;;;;;;;11.00;68.36;100251.06;1265919;23;677;-71
2022/12/14 00:05:51;;;;;;;;;;;;;;;10.98;68.01;100257.50;1265781;23;636;-72
2022/12/14 00:06:41;;;;;;;;;;;;;;;11.02;68.20;100256.28;1265842;23;666;-71
2022/12/14 00:07:32;;;;;;;;;;;;;;;11.02;68.80;100259.81;1266066;23;610;-71
2022/12/14 00:08:22;;;;;;;;;;;;;;;11.03;67.63;100253.50;1265226;23;648;-71
2022/12/14 00:09:13;;;;;;;;;;;;;;;11.03;67.92;100255.31;1266039;23;674;-71
2022/12/14 00:10:03;;;;;;;;;;;;;;;11.04;68.38;100257.88;1265780;23;610;-72
2022/12/14 00:10:53;;;;;;;;;;;;;;;11.00;68.18;100260.88;1265960;23;637;-71
2022/12/14 00:11:44;;;;;;;;;;;;;;;10.99;68.13;100259.19;1265713;23;669;-72
2022/12/14 00:12:35;;;;;;;;;;;;;;;11.01;68.32;100257.25;1267571;23;637;-71
2022/12/14 00:13:25;;;;;;;;;;;;;;;11.02;68.29;100253.63;1265938;23;639;-71
2022/12/14 00:14:15;;;;;;;;;;;;;;;11.00;67.90;100258.22;1266031;23;574;-71
2022/12/14 00:15:06;;;;;;;;;;;;;;;11.01;67.59;100255.44;1265702;23;736;-72
2022/12/14 00:15:56;;;;;;;;;;;;;;;11.01;68.10;100257.25;1265502;23;672;-72
2022/12/14 00:16:47;;;;;;;;;;;;;;;10.99;68.42;100249.38;1266036;23;654;-71
2022/12/14 00:17:38;;;;;;;;;;;;;;;10.99;68.22;100245.84;1265835;23;929;-71
2022/12/14 00:18:29;;;;;;;;;;;;;;;11.00;67.89;100244.91;1267217;23;680;-73
2022/12/14 00:19:19;;;;;;;;;;;;;;;10.99;67.97;100246.72;1265809;23;598;-74
2022/12/14 00:20:09;;;;;;;;;;;;;;;10.98;68.47;100244.16;1265988;23;642;-70
2022/12/14 00:21:00;;;;;;;;;;;;;;;10.99;67.65;100245.84;1265584;23;615;-73
2022/12/14 00:21:50;;;;;;;;;;;;;;;10.95;68.09;100247.91;1265903;23;670;-72
2022/12/14 00:22:41;;;;;;;;;;;;;;;10.97;68.45;100245.13;1266189;23;600;-73
2022/12/14 00:23:31;;;;;;;;;;;;;;;10.96;68.49;100243.41;1265735;23;622;-70
2022/12/14 00:24:22;;;;;;;;;;;;;;;10.95;68.17;100242.56;1266009;23;673;-73
2022/12/14 00:25:12;;;;;;;;;;;;;;;10.97;68.30;100245.13;1265662;23;649;-70
2022/12/14 00:26:02;;;;;;;;;;;;;;;10.95;68.36;100244.38;1265740;23;651;-73
2022/12/14 00:26:53;;;;;;;;;;;;;;;10.96;68.47;100243.41;1265554;23;669;-73
2022/12/14 00:27:43;;;;;;;;;;;;;;;10.99;68.05;100237.84;1265894;23;634;-71
2022/12/14 00:28:34;;;;;;;;;;;;;;;11.00;67.79;100231.56;1266103;23;618;-70
2022/12/14 00:29:24;;;;;;;;;;;;;;;10.97;68.21;100234.47;1265287;23;641;-73
2022/12/14 00:30:15;;;;;;;;;;;;;;;10.93;67.96;100231.16;1265941;23;625;-72
2022/12/14 00:31:05;;;;;;;;;;;;;;;10.90;68.54;100230.56;1267597;23;627;-73
2022/12/14 00:31:56;;;;;;;;;;;;;;;10.92;68.52;100228.66;1259581;23;648;-72
2022/12/14 00:32:46;;;;;;;;;;;;;;;10.89;68.78;100228.88;1261001;23;1889;-73
2022/12/14 00:33:37;;;;;;;;;;;;;;;10.89;68.03;100231.53;1267342;23;614;-73
2022/12/14 00:34:27;;;;;;;;;;;;;;;10.90;68.00;100226.09;1264996;23;661;-73
2022/12/14 00:35:17;;;;;;;;;;;;;;;10.94;68.45;100234.69;1265850;23;749;-73
2022/12/14 00:36:08;;;;;;;;;;;;;;;10.96;67.96;100222.09;1265698;23;654;-71
2022/12/14 00:36:58;;;;;;;;;;;;;;;10.93;68.68;100227.66;1259471;23;638;-73
2022/12/14 00:37:49;;;;;;;;;;;;;;;10.91;67.87;100224.28;1261021;23;731;-73
2022/12/14 00:38:39;;;;;;;;;;;;;;;10.92;68.65;100229.50;1259222;23;657;-73
2022/12/14 00:39:30;;;;;;;;;;;;;;;10.90;68.25;100217.25;1261099;23;657;-72
2022/12/14 00:40:20;;;;;;;;;;;;;;;10.90;68.38;100222.59;1264275;23;640;-73
2022/12/14 00:41:11;;;;;;;;;;;;;;;10.89;67.90;100216.41;1265937;23;647;-70
2022/12/14 00:42:01;;;;;;;;;;;;;;;10.91;67.79;100218.94;1267390;23;602;-73
2022/12/14 00:42:52;;;;;;;;;;;;;;;10.88;68.13;100219.19;1265986;23;661;-70
2022/12/14 00:43:42;;;;;;;;;;;;;;;10.92;68.23;100207.31;1265827;23;681;-73
2022/12/14 00:44:33;;;;;;;;;;;;;;;10.90;68.09;100212.78;1259450;23;606;-70
2022/12/14 00:45:23;;;;;;;;;;;;;;;10.86;67.90;100213.13;1261206;23;622;-72
2022/12/14 00:46:14;;;;;;;;;;;;;;;10.85;68.33;100212.25;1267479;23;653;-72
2022/12/14 00:47:04;;;;;;;;;;;;;;;10.88;68.80;100216.53;1265089;23;603;-72
2022/12/14 00:47:55;;;;;;;;;;;;;;;10.87;68.42;100213.00;1265909;23;658;-72
2022/12/14 00:48:46;;;;;;;;;;;;;;;10.91;68.72;100205.63;1267359;23;680;-72
2022/12/14 00:49:36;;;;;;;;;;;;;;;10.90;68.02;100211.91;1267395;23;648;-73
2022/12/14 00:50:26;;;;;;;;;;;;;;;10.89;68.33;100208.41;1265738;23;610;-72
2022/12/14 00:51:17;;;;;;;;;;;;;;;10.86;67.98;100211.31;1265986;23;661;-72
2022/12/14 00:52:07;;;;;;;;;;;;;;;10.86;68.51;100207.78;1267378;23;566;-72
2022/12/14 00:52:58;;;;;;;;;;;;;;;10.84;68.40;100212.38;1265348;23;1888;-72
2022/12/14 00:53:48;;;;;;;;;;;;;;;10.88;68.47;100212.03;1265761;23;604;-72
2022/12/14 00:54:39;;;;;;;;;;;;;;;10.88;68.38;100208.53;1265962;23;644;-72
2022/12/14 00:55:29;;;;;;;;;;;;;;;10.89;67.95;100196.88;1265649;23;625;-72
2022/12/14 00:56:20;;;;;;;;;;;;;;;10.86;67.65;100197.97;1265891;23;661;-72
2022/12/14 00:57:10;;;;;;;;;;;;;;;10.87;67.96;100190.81;1265491;23;595;-72
2022/12/14 00:58:00;;;;;;;;;;;;;;;10.87;68.06;100194.34;1259378;23;673;-72
2022/12/14 00:58:51;;;;;;;;;;;;;;;10.88;67.92;100192.53;1259613;23;626;-72
2022/12/14 00:59:41;;;;;;;;;;;;;;;10.88;68.68;100197.84;1267090;23;595;-73
2022/12/14 01:00:32;;;;;;;;;;;;;;;10.88;68.42;100195.19;1265812;23;603;-72
2022/12/14 01:01:22;;;;;;;;;;;;;;;10.86;68.15;100189.13;1265059;23;595;-72
2022/12/14 01:02:13;;;;;;;;;;;;;;;10.84;68.52;100189.25;1265674;23;661;-72
2022/12/14 01:03:03;;;;;;;;;;;;;;;10.84;68.16;100180.41;1265624;23;635;-72
2022/12/14 01:04:15;;;;;;;;;;;;;;;10.84;68.62;100185.72;1265786;23;661;-73
2022/12/14 01:05:04;;;;;;;;;;;;;;;10.83;68.79;100184.03;1265944;23;638;-72
2022/12/14 01:05:54;;;;;;;;;;;;;;;10.83;68.23;100184.03;1265914;23;653;-72
2022/12/14 01:06:45;;;;;;;;;;;;;;;10.83;68.54;100189.34;1265994;23;638;-72
2022/12/14 01:07:36;;;;;;;;;;;;;;;10.82;68.03;100187.66;1265722;23;658;-72
2022/12/14 01:08:33;;;;;;;;;;;;;;;10.79;68.26;100186.91;1265661;23;646;-72
2022/12/14 01:09:24;;;;;;;;;;;;;;;10.80;68.36;100177.09;1260932;23;684;-72
2022/12/14 01:10:14;;;;;;;;;;;;;;;10.79;67.89;100186.06;1260925;23;622;-72
2022/12/14 01:11:05;;;;;;;;;;;;;;;10.82;68.39;100182.31;1267338;23;601;-72
2022/12/14 01:11:55;;;;;;;;;;;;;;;10.81;68.57;100178.81;1265594;23;693;-72
2022/12/14 01:12:46;;;;;;;;;;;;;;;10.84;68.46;100181.25;1265804;23;1942;-72
2022/12/14 01:13:36;;;;;;;;;;;;;;;10.83;68.17;100184.03;1265596;23;655;-72
2022/12/14 01:14:27;;;;;;;;;;;;;;;10.84;68.11;100180.41;1265960;23;625;-72
2022/12/14 01:15:17;;;;;;;;;;;;;;;10.84;68.05;100183.91;1265416;23;677;-72
2022/12/14 01:16:07;;;;;;;;;;;;;;;10.83;68.58;100178.69;1264999;23;583;-72
2022/12/14 01:16:58;;;;;;;;;;;;;;;10.84;68.68;100169.72;1265867;23;624;-72
2022/12/14 01:17:48;;;;;;;;;;;;;;;10.83;68.48;100174.22;1265691;23;595;-72
2022/12/14 01:18:39;;;;;;;;;;;;;;;10.82;68.62;100179.66;1265850;23;634;-72
2022/12/14 01:19:29;;;;;;;;;;;;;;;10.82;68.15;100180.50;1265549;23;626;-72
2022/12/14 01:20:19;;;;;;;;;;;;;;;10.82;67.96;100177.00;1265771;23;629;-72
2022/12/14 01:21:10;;;;;;;;;;;;;;;10.78;68.46;100185.22;1266275;23;681;-72
2022/12/14 01:22:00;;;;;;;;;;;;;;;10.79;68.03;100184.25;1265644;23;635;-72
2022/12/14 01:22:51;;;;;;;;;;;;;;;10.79;68.28;100178.91;1265757;23;606;-72
2022/12/14 01:23:41;;;;;;;;;;;;;;;10.77;68.71;100180.84;1265641;23;621;-72
2022/12/14 01:24:32;;;;;;;;;;;;;;;10.82;67.91;100182.31;1265708;23;614;-72
2022/12/14 01:25:22;;;;;;;;;;;;;;;10.81;68.05;100177.97;1265613;23;575;-73
2022/12/14 01:26:13;;;;;;;;;;;;;;;10.77;68.39;100180.00;1265756;23;727;-72
2022/12/14 01:27:03;;;;;;;;;;;;;;;10.79;68.26;100178.06;1265625;23;669;-72
2022/12/14 01:27:53;;;;;;;;;;;;;;;10.82;68.74;100182.31;1265738;23;606;-72
2022/12/14 01:28:44;;;;;;;;;;;;;;;10.83;68.62;100171.56;1265782;23;594;-73
2022/12/14 01:29:34;;;;;;;;;;;;;;;10.83;68.38;100181.34;1265651;23;675;-72
2022/12/14 01:30:25;;;;;;;;;;;;;;;10.81;68.19;100178.81;1265214;23;621;-72
2022/12/14 01:31:15;;;;;;;;;;;;;;;10.83;68.33;100173.38;1265592;23;582;-72
2022/12/14 01:32:06;;;;;;;;;;;;;;;10.83;68.14;100190.19;1265507;23;653;-72
2022/12/14 01:32:56;;;;;;;;;;;;;;;10.81;68.56;100180.63;1266293;23;1920;-72
2022/12/14 01:33:46;;;;;;;;;;;;;;;10.79;68.33;100191.41;1265737;23;618;-72
2022/12/14 01:34:37;;;;;;;;;;;;;;;10.82;67.90;100185.84;1265812;23;668;-72
2022/12/14 01:35:27;;;;;;;;;;;;;;;10.82;68.06;100187.66;1265598;23;606;-72
2022/12/14 01:36:18;;;;;;;;;;;;;;;10.77;68.34;100186.19;1265656;23;676;-72
2022/12/14 01:37:08;;;;;;;;;;;;;;;10.76;68.67;100183.63;1265474;23;622;-72
2022/12/14 01:37:59;;;;;;;;;;;;;;;10.76;68.94;100192.47;1265673;23;685;-72
2022/12/14 01:38:49;;;;;;;;;;;;;;;10.77;68.75;100191.50;1265806;23;636;-70
2022/12/14 01:39:39;;;;;;;;;;;;;;;10.76;68.46;100189.81;1265631;23;634;-72
2022/12/14 01:40:30;;;;;;;;;;;;;;;10.79;68.43;100184.25;1265938;23;638;-72
2022/12/14 01:41:20;;;;;;;;;;;;;;;10.79;68.35;100184.25;1265692;23;626;-72
2022/12/14 01:42:11;;;;;;;;;;;;;;;10.78;68.06;100182.56;1265667;23;642;-72
2022/12/14 01:43:01;;;;;;;;;;;;;;;10.73;68.35;100186.56;1265560;23;586;-73
2022/12/14 01:43:52;;;;;;;;;;;;;;;10.73;68.57;100190.06;1265609;23;622;-73
2022/12/14 01:44:42;;;;;;;;;;;;;;;10.73;68.35;100191.88;1265085;23;665;-73
2022/12/14 01:45:33;;;;;;;;;;;;;;;10.73;67.96;100187.41;1264942;23;637;-72
2022/12/14 01:46:23;;;;;;;;;;;;;;;10.74;68.75;100185.59;1265416;23;697;-72
2022/12/14 01:47:13;;;;;;;;;;;;;;;10.71;68.73;100192.00;1265555;23;610;-72
2022/12/14 01:48:04;;;;;;;;;;;;;;;10.71;68.11;100184.00;1265789;23;610;-73
2022/12/14 01:48:54;;;;;;;;;;;;;;;10.73;68.69;100179.41;1265621;23;637;-73
2022/12/14 01:49:45;;;;;;;;;;;;;;;10.76;68.21;100172.97;1265806;23;670;-72
2022/12/14 01:50:35;;;;;;;;;;;;;;;10.71;68.64;100177.81;1265503;23;646;-72
2022/12/14 01:51:26;;;;;;;;;;;;;;;10.73;68.49;100176.75;1265659;23;689;-72
2022/12/14 01:52:16;;;;;;;;;;;;;;;10.71;68.29;100170.69;1258996;23;610;-72
2022/12/14 01:53:07;;;;;;;;;;;;;;;10.71;68.35;100170.69;1260659;23;1897;-73
2022/12/14 01:53:57;;;;;;;;;;;;;;;10.69;68.90;100175.28;1266908;23;683;-72
2022/12/14 01:54:47;;;;;;;;;;;;;;;10.72;68.76;100168.88;1265698;23;611;-72
2022/12/14 01:55:38;;;;;;;;;;;;;;;10.73;68.12;100165.25;1265828;23;646;-72
2022/12/14 01:56:28;;;;;;;;;;;;;;;10.75;67.85;100177.44;1265612;23;602;-72
2022/12/14 01:57:19;;;;;;;;;;;;;;;10.77;68.16;100172.00;1265679;23;765;-73
2022/12/14 01:58:09;;;;;;;;;;;;;;;10.72;68.68;100172.38;1267194;23;644;-72
2022/12/14 01:59:00;;;;;;;;;;;;;;;10.72;68.53;100179.53;1265654;23;680;-72
2022/12/14 01:59:50;;;;;;;;;;;;;;;10.73;68.54;100171.41;1265488;23;607;-73
2022/12/14 02:00:41;;;;;;;;;;;;;;;10.70;68.19;100178.78;1265876;23;697;-71
2022/12/14 02:01:31;;;;;;;;;;;;;;;10.72;68.76;100179.53;1265610;23;630;-71
2022/12/14 02:02:22;;;;;;;;;;;;;;;10.71;68.09;100178.69;1265702;23;661;-71
2022/12/14 02:03:12;;;;;;;;;;;;;;;10.70;68.27;100174.31;1265323;23;641;-71
2022/12/14 02:04:04;;;;;;;;;;;;;;;10.72;68.67;100172.38;1265562;23;626;-71
2022/12/14 02:04:54;;;;;;;;;;;;;;;10.72;68.81;100166.19;1259081;23;658;-71
2022/12/14 02:05:45;;;;;;;;;;;;;;;10.72;68.11;100169.72;1260803;23;645;-72
2022/12/14 02:06:35;;;;;;;;;;;;;;;10.71;68.34;100167.16;1267145;23;593;-71
2022/12/14 02:07:26;;;;;;;;;;;;;;;10.73;68.32;100162.56;1265618;23;630;-71
2022/12/14 02:08:16;;;;;;;;;;;;;;;10.76;68.71;100162.31;1265354;23;557;-71
2022/12/14 02:09:06;;;;;;;;;;;;;;;10.74;68.12;100158.94;1265512;23;617;-71
2022/12/14 02:09:57;;;;;;;;;;;;;;;10.74;68.50;100164.28;1265795;23;669;-71
2022/12/14 02:10:47;;;;;;;;;;;;;;;10.73;68.67;100163.41;1265479;23;665;-71
2022/12/14 02:11:38;;;;;;;;;;;;;;;10.71;68.26;100167.16;1265784;23;692;-71
2022/12/14 02:12:28;;;;;;;;;;;;;;;10.70;68.08;100163.66;1265399;23;736;-71
2022/12/14 02:13:19;;;;;;;;;;;;;;;10.71;68.37;100165.34;1265736;23;661;-71
2022/12/14 02:14:09;;;;;;;;;;;;;;;10.70;67.77;100161.00;1258553;23;654;-71
2022/12/14 02:15:00;;;;;;;;;;;;;;;10.63;68.81;100167.72;1261034;23;798;-71
2022/12/14 02:15:50;;;;;;;;;;;;;;;10.66;68.39;100164.84;1267122;23;590;-71
2022/12/14 02:16:40;;;;;;;;;;;;;;;10.66;68.75;100161.31;1265536;23;651;-71
2022/12/14 02:17:31;;;;;;;;;;;;;;;10.70;68.61;100155.66;1265695;23;630;-71
2022/12/14 02:18:21;;;;;;;;;;;;;;;10.69;68.16;100159.28;1265602;23;662;-71
2022/12/14 02:19:12;;;;;;;;;;;;;;;10.71;68.04;100154.69;1265586;23;672;-71
2022/12/14 02:20:03;;;;;;;;;;;;;;;10.68;68.49;100151.41;1265508;23;643;-71
2022/12/14 02:20:53;;;;;;;;;;;;;;;10.69;68.74;100153.09;1265331;23;743;-71
2022/12/14 02:21:43;;;;;;;;;;;;;;;10.68;67.98;100151.41;1265468;23;582;-71
2022/12/14 02:22:34;;;;;;;;;;;;;;;10.66;68.22;100156.84;1265885;23;665;-71
2022/12/14 02:23:24;;;;;;;;;;;;;;;10.64;68.51;100158.78;1265513;23;638;-71
2022/12/14 02:24:15;;;;;;;;;;;;;;;10.64;68.60;100155.25;1265702;23;622;-72
2022/12/14 02:25:05;;;;;;;;;;;;;;;10.64;68.18;100153.44;1265466;23;614;-71
2022/12/14 02:25:56;;;;;;;;;;;;;;;10.64;68.95;100149.94;1265558;23;668;-70
2022/12/14 02:26:46;;;;;;;;;;;;;;;10.65;68.66;100151.63;1265508;23;566;-71
2022/12/14 02:27:36;;;;;;;;;;;;;;;10.61;68.31;100151.00;1265543;23;630;-71
2022/12/14 02:28:27;;;;;;;;;;;;;;;10.63;68.41;100146.41;1265324;23;629;-71
2022/12/14 02:29:17;;;;;;;;;;;;;;;10.67;68.29;100144.38;1265421;23;650;-71
2022/12/14 02:30:09;;;;;;;;;;;;;;;10.64;68.36;100144.59;1265785;23;685;-71
2022/12/14 02:30:59;;;;;;;;;;;;;;;10.62;68.50;100147.38;1265790;23;681;-71
2022/12/14 02:31:49;;;;;;;;;;;;;;;10.61;68.69;100148.34;1265627;23;799;-71
2022/12/14 02:32:41;;;;;;;;;;;;;;;10.63;68.04;100146.41;1265818;23;645;-71
2022/12/14 02:33:31;;;;;;;;;;;;;;;10.63;68.42;100141.09;1265382;23;590;-71
2022/12/14 02:34:21;;;;;;;;;;;;;;;10.61;68.44;100144.84;1265483;23;653;-71
2022/12/14 02:35:12;;;;;;;;;;;;;;;10.58;68.60;100148.56;1265770;23;625;-71
2022/12/14 02:36:02;;;;;;;;;;;;;;;10.59;68.77;100144.09;1265392;23;631;-71
2022/12/14 02:36:53;;;;;;;;;;;;;;;10.61;68.17;100142.16;1259325;23;684;-71
2022/12/14 02:37:43;;;;;;;;;;;;;;;10.62;68.75;100144.72;1260836;23;606;-71
2022/12/14 02:38:34;;;;;;;;;;;;;;;10.64;68.05;100149.94;1264576;23;640;-71
2022/12/14 02:39:24;;;;;;;;;;;;;;;10.63;68.74;100145.56;1265826;23;653;-71
2022/12/14 02:40:14;;;;;;;;;;;;;;;10.62;68.46;100144.72;1265304;23;644;-71
2022/12/14 02:41:05;;;;;;;;;;;;;;;10.60;68.86;100151.13;1265749;23;662;-71
2022/12/14 02:41:55;;;;;;;;;;;;;;;10.61;68.39;100151.00;1265432;23;642;-71
2022/12/14 02:42:46;;;;;;;;;;;;;;;10.60;68.42;100143.97;1264907;23;607;-70
2022/12/14 02:43:36;;;;;;;;;;;;;;;10.61;68.22;100136.84;1266151;23;563;-70
2022/12/14 02:44:26;;;;;;;;;;;;;;;10.62;68.38;100135.88;1265513;23;611;-70
2022/12/14 02:45:17;;;;;;;;;;;;;;;10.61;68.72;100135.03;1265900;23;619;-71
2022/12/14 02:46:07;;;;;;;;;;;;;;;10.62;68.58;100134.06;1265354;23;650;-70
2022/12/14 02:46:58;;;;;;;;;;;;;;;10.62;68.42;100135.88;1265749;23;716;-71
2022/12/14 02:47:48;;;;;;;;;;;;;;;10.65;68.41;100127.66;1265314;23;664;-71
2022/12/14 02:48:39;;;;;;;;;;;;;;;10.66;68.12;100124.88;1265508;23;669;-71
2022/12/14 02:49:29;;;;;;;;;;;;;;;10.58;67.87;100127.25;1267275;23;638;-71
2022/12/14 02:50:20;;;;;;;;;;;;;;;10.58;67.95;100124.59;1265624;23;701;-71
2022/12/14 02:51:10;;;;;;;;;;;;;;;10.57;68.38;100125.56;1258717;23;963;-71
2022/12/14 02:52:01;;;;;;;;;;;;;;;10.60;67.98;100128.00;1259069;23;685;-71
2022/12/14 02:52:52;;;;;;;;;;;;;;;10.59;68.02;100120.97;1266900;23;1978;-71
2022/12/14 02:53:42;;;;;;;;;;;;;;;10.60;68.54;100125.34;1265792;23;662;-71
2022/12/14 02:54:32;;;;;;;;;;;;;;;10.61;68.43;100127.03;1265442;23;602;-71
2022/12/14 02:55:23;;;;;;;;;;;;;;;10.57;68.24;100122.91;1265576;23;649;-71
2022/12/14 02:56:13;;;;;;;;;;;;;;;10.54;68.59;100117.84;1265176;23;628;-71
2022/12/14 02:57:04;;;;;;;;;;;;;;;10.56;68.81;100121.22;1265589;23;571;-72
2022/12/14 02:57:54;;;;;;;;;;;;;;;10.57;68.80;100120.25;1265292;23;619;-71
2022/12/14 02:58:47;;;;;;;;;;;;;;;10.57;68.68;100119.41;1265546;23;610;-71
2022/12/14 02:59:38;;;;;;;;;;;;;;;10.57;68.18;100117.56;1267018;23;599;-71
2022/12/14 03:00:29;;;;;;;;;;;;;;;10.57;68.48;100122.09;1265809;23;650;-71
2022/12/14 03:01:19;;;;;;;;;;;;;;;10.58;68.12;100110.44;1265598;23;657;-71
2022/12/14 03:02:09;;;;;;;;;;;;;;;10.52;68.89;100125.09;1265436;23;634;-71
2022/12/14 03:03:00;;;;;;;;;;;;;;;10.55;68.72;100121.34;1265701;23;619;-71
2022/12/14 03:03:50;;;;;;;;;;;;;;;10.58;68.47;100116.59;1265483;23;630;-71
2022/12/14 03:04:46;;;;;;;;;;;;;;;10.54;68.18;100122.31;1265605;23;649;-71
2022/12/14 03:05:36;;;;;;;;;;;;;;;10.55;68.50;100122.19;1267266;23;645;-71
2022/12/14 03:06:27;;;;;;;;;;;;;;;10.55;68.25;100124.00;1265483;23;561;-71
2022/12/14 03:07:17;;;;;;;;;;;;;;;10.54;68.47;100115.16;1265800;23;673;-71
2022/12/14 03:08:07;;;;;;;;;;;;;;;10.55;68.33;100116.88;1265524;23;638;-71
2022/12/14 03:08:58;;;;;;;;;;;;;;;10.53;68.46;100118.78;1265666;23;671;-71
2022/12/14 03:09:48;;;;;;;;;;;;;;;10.49;68.28;100114.66;1265457;23;649;-71
2022/12/14 03:10:39;;;;;;;;;;;;;;;10.53;68.39;100113.47;1265697;23;657;-71
2022/12/14 03:11:29;;;;;;;;;;;;;;;10.51;68.82;100118.06;1265366;23;579;-70
2022/12/14 03:12:20;;;;;;;;;;;;;;;10.53;68.18;100113.47;1265603;23;607;-71
2022/12/14 03:13:10;;;;;;;;;;;;;;;10.49;68.42;100117.31;1265516;23;1920;-71
2022/12/14 03:14:00;;;;;;;;;;;;;;;10.50;68.87;100113.69;1265462;23;645;-71
2022/12/14 03:14:51;;;;;;;;;;;;;;;10.50;68.75;100113.69;1265429;23;710;-71
2022/12/14 03:15:41;;;;;;;;;;;;;;;10.50;68.18;100107.53;1259057;23;649;-71
2022/12/14 03:16:32;;;;;;;;;;;;;;;10.49;68.47;100105.81;1258521;23;653;-71
2022/12/14 03:17:22;;;;;;;;;;;;;;;10.47;68.43;100111.25;1267086;23;656;-71
2022/12/14 03:18:13;;;;;;;;;;;;;;;10.48;68.46;100102.31;1264994;23;542;-71
2022/12/14 03:19:03;;;;;;;;;;;;;;;10.49;68.47;100104.00;1265153;23;654;-71
2022/12/14 03:19:54;;;;;;;;;;;;;;;10.53;68.31;100099.31;1265019;23;654;-71
2022/12/14 03:20:44;;;;;;;;;;;;;;;10.50;68.78;100097.72;1265436;23;626;-71
2022/12/14 03:21:34;;;;;;;;;;;;;;;10.48;68.65;100106.78;1264880;23;646;-71
2022/12/14 03:22:25;;;;;;;;;;;;;;;10.47;68.48;100103.28;1265412;23;712;-71
2022/12/14 03:23:15;;;;;;;;;;;;;;;10.47;68.03;100105.94;1264846;23;606;-71
2022/12/14 03:24:06;;;;;;;;;;;;;;;10.52;68.50;100105.59;1265223;23;596;-72
2022/12/14 03:24:56;;;;;;;;;;;;;;;10.49;67.98;100096.00;1267418;23;700;-72
2022/12/14 03:25:47;;;;;;;;;;;;;;;10.51;68.52;100096.75;1266274;23;618;-72
2022/12/14 03:26:37;;;;;;;;;;;;;;;10.50;67.91;100099.53;1265805;23;688;-71
2022/12/14 03:27:27;;;;;;;;;;;;;;;10.51;68.60;100095.91;1266272;23;615;-71
2022/12/14 03:28:18;;;;;;;;;;;;;;;10.50;68.63;100097.72;1266334;23;621;-72
2022/12/14 03:29:08;;;;;;;;;;;;;;;10.51;68.24;100093.25;1266136;23;601;-71
2022/12/14 03:29:59;;;;;;;;;;;;;;;10.53;67.84;100092.16;1266292;23;799;-71
2022/12/14 03:30:49;;;;;;;;;;;;;;;10.54;68.71;100090.34;1266086;23;716;-71
2022/12/14 03:31:40;;;;;;;;;;;;;;;10.46;68.38;100088.25;1266239;23;633;-71
2022/12/14 03:32:30;;;;;;;;;;;;;;;10.47;68.39;100087.28;1266174;23;626;-71
2022/12/14 03:33:21;;;;;;;;;;;;;;;10.48;68.17;100089.00;1266474;23;649;-71
2022/12/14 03:34:11;;;;;;;;;;;;;;;10.52;68.04;100089.59;1265899;23;736;-71
2022/12/14 03:35:02;;;;;;;;;;;;;;;10.52;68.29;100087.78;1266292;23;590;-72
2022/12/14 03:35:52;;;;;;;;;;;;;;;10.49;68.22;100088.03;1259633;23;660;-71
2022/12/14 03:36:43;;;;;;;;;;;;;;;10.47;68.83;100081.97;1261450;23;645;-71
2022/12/14 03:37:33;;;;;;;;;;;;;;;10.46;68.04;100080.25;1267834;23;599;-71
2022/12/14 03:38:24;;;;;;;;;;;;;;;10.43;68.72;100089.34;1266316;23;655;-71
2022/12/14 03:39:14;;;;;;;;;;;;;;;10.46;68.34;100090.91;1266306;23;610;-71
2022/12/14 03:40:04;;;;;;;;;;;;;;;10.43;68.73;100085.81;1266116;23;647;-71
2022/12/14 03:40:55;;;;;;;;;;;;;;;10.41;68.61;100082.41;1265773;23;645;-71
2022/12/14 03:41:45;;;;;;;;;;;;;;;10.40;68.86;100076.25;1265944;23;610;-71
2022/12/14 03:42:36;;;;;;;;;;;;;;;10.41;68.33;100082.41;1266235;23;655;-71
2022/12/14 03:43:26;;;;;;;;;;;;;;;10.45;68.34;100081.22;1265996;23;681;-71
2022/12/14 03:44:17;;;;;;;;;;;;;;;10.40;68.28;100084.22;1259658;23;650;-71
2022/12/14 03:45:07;;;;;;;;;;;;;;;10.39;68.94;100077.22;1259796;23;642;-71
2022/12/14 03:45:57;;;;;;;;;;;;;;;10.42;68.43;100078.78;1267780;23;610;-71
2022/12/14 03:46:48;;;;;;;;;;;;;;;10.42;68.67;100076.97;1266315;23;637;-71
2022/12/14 03:47:38;;;;;;;;;;;;;;;10.44;68.31;100071.53;1266065;23;675;-71
2022/12/14 03:48:29;;;;;;;;;;;;;;;10.46;68.65;100064.28;1266068;23;598;-71
2022/12/14 03:49:19;;;;;;;;;;;;;;;10.40;68.21;100076.25;1266379;23;716;-71
2022/12/14 03:50:10;;;;;;;;;;;;;;;10.39;68.90;100074.53;1265871;23;634;-71
2022/12/14 03:51:00;;;;;;;;;;;;;;;10.37;68.86;100080.97;1267944;23;692;-71
2022/12/14 03:51:51;;;;;;;;;;;;;;;10.37;68.70;100073.00;1266345;23;634;-71
2022/12/14 03:52:41;;;;;;;;;;;;;;;10.38;68.89;100075.53;1266442;23;684;-71
2022/12/14 03:53:32;;;;;;;;;;;;;;;10.37;68.72;100075.66;1266143;23;693;-71
2022/12/14 03:54:22;;;;;;;;;;;;;;;10.36;68.42;100080.13;1266346;23;634;-71
2022/12/14 03:55:12;;;;;;;;;;;;;;;10.38;68.61;100072.03;1265476;23;742;-71
2022/12/14 03:56:03;;;;;;;;;;;;;;;10.35;68.17;100073.09;1266195;23;585;-71
2022/12/14 03:56:53;;;;;;;;;;;;;;;10.38;68.81;100075.53;1265302;23;610;-71
2022/12/14 03:57:44;;;;;;;;;;;;;;;10.38;68.42;100077.34;1266242;23;662;-71
2022/12/14 03:58:34;;;;;;;;;;;;;;;10.39;68.54;100065.75;1266318;23;626;-71
2022/12/14 03:59:25;;;;;;;;;;;;;;;10.36;68.19;100072.16;1266202;23;666;-71
2022/12/14 04:00:16;;;;;;;;;;;;;;;10.35;68.49;100069.59;1267668;23;685;-71
2022/12/14 04:01:06;;;;;;;;;;;;;;;10.39;68.29;100057.75;1266130;23;697;-71
2022/12/14 04:01:57;;;;;;;;;;;;;;;10.38;68.61;100062.22;1266240;23;630;-71
2022/12/14 04:02:47;;;;;;;;;;;;;;;10.38;68.54;100066.69;1265898;23;574;-71
2022/12/14 04:03:38;;;;;;;;;;;;;;;10.38;68.37;100067.56;1266157;23;650;-71
2022/12/14 04:04:28;;;;;;;;;;;;;;;10.35;68.81;100066.94;1266399;23;684;-71
2022/12/14 04:05:18;;;;;;;;;;;;;;;10.34;68.42;100067.91;1266083;23;617;-71
2022/12/14 04:06:09;;;;;;;;;;;;;;;10.37;68.08;100070.31;1265482;23;661;-71
2022/12/14 04:06:59;;;;;;;;;;;;;;;10.36;68.63;100071.28;1265890;23;618;-71
2022/12/14 04:07:50;;;;;;;;;;;;;;;10.35;68.61;100065.13;1266153;23;613;-71
2022/12/14 04:08:40;;;;;;;;;;;;;;;10.37;68.67;100062.34;1266330;23;670;-71
2022/12/14 04:09:31;;;;;;;;;;;;;;;10.37;68.03;100063.19;1266133;23;598;-71
2022/12/14 04:19:35;;;;;;;;;;;;;;;10.33;68.44;100051.06;1264610;23;666;-71
2022/12/14 04:20:25;;;;;;;;;;;;;;;10.33;68.04;100060.88;1266394;23;653;-71
2022/12/14 04:21:16;;;;;;;;;;;;;;;10.35;67.96;100061.59;1266167;23;655;-71
2022/12/14 04:22:06;;;;;;;;;;;;;;;10.35;68.32;100053.63;1266120;23;669;-71
2022/12/14 04:22:56;;;;;;;;;;;;;;;10.30;68.62;100050.44;1259624;23;638;-71
2022/12/14 04:26:05;;;;;;;;;;;;;;;10.30;68.30;100053.97;1264621;23;677;-71
2022/12/14 04:26:56;;;;;;;;;;;;;;;10.29;68.78;100048.75;1267886;23;607;-71
2022/12/14 04:27:46;;;;;;;;;;;;;;;10.29;68.83;100051.41;1266286;23;626;-71
2022/12/14 04:29:55;;;;;;;;;;;;;;;10.25;68.36;100050.78;1264570;23;657;-71
2022/12/14 04:30:45;;;;;;;;;;;;;;;10.28;68.50;100052.38;1266388;23;806;-71
2022/12/14 04:31:36;;;;;;;;;;;;;;;10.31;68.42;100057.47;1266360;23;619;-71
2022/12/14 04:32:26;;;;;;;;;;;;;;;10.30;68.66;100048.63;1266351;23;665;-71
2022/12/14 04:34:25;;;;;;;;;;;;;;;10.33;68.36;100055.53;1264355;23;658;-71
2022/12/14 04:35:16;;;;;;;;;;;;;;;10.30;68.55;100055.78;1266192;23;653;-71
2022/12/14 04:36:06;;;;;;;;;;;;;;;10.31;68.26;100049.47;1265931;23;634;-71
2022/12/14 04:36:57;;;;;;;;;;;;;;;10.30;68.59;100040.66;1258962;23;604;-71
2022/12/14 04:37:47;;;;;;;;;;;;;;;10.28;68.19;100047.91;1261159;23;602;-71
2022/12/14 04:38:38;;;;;;;;;;;;;;;10.29;68.59;100038.09;1267372;23;642;-71
2022/12/14 04:39:28;;;;;;;;;;;;;;;10.28;68.29;100049.72;1265950;23;646;-71
2022/12/14 04:40:19;;;;;;;;;;;;;;;10.32;68.25;100045.84;1265698;23;638;-71
2022/12/14 04:41:09;;;;;;;;;;;;;;;10.26;68.31;100041.84;1265942;23;606;-71